This is the latest recevied weather packets stored in our database for station/object N5ZP. If no packets are shown the sender has not sent any weather packets the latest 10 day(s).
| Time | Temp. | Humidity | Pressure | Rain* | Wind** | Luminosity | Snow |
|---|---|---|---|---|---|---|---|
| 1777812362 | 16.11° C | 69% | 1017.9 hPa | 0 mm | - | 95 W/m² | - |
| 1777812061 | 15° C | 71% | 1018 hPa | 0 mm | - | 75 W/m² | - |
| 1777811759 | 13.89° C | 76% | 1017.8 hPa | 0 mm | - | 60 W/m² | - |
| 1777811455 | 13.33° C | 82% | 1017.9 hPa | 0 mm | - | 51 W/m² | - |
| 1777811152 | 12.22° C | 89% | 1017.8 hPa | 0 mm | - | 44 W/m² | - |
| 1777810849 | 11.67° C | 91% | 1017.8 hPa | 0 mm | - | 37 W/m² | - |
| 1777810546 | 10.56° C | 92% | 1017.6 hPa | 0 mm | - | 31 W/m² | - |
| 1777810242 | 10° C | 94% | 1017.8 hPa | 0 mm | - | 25 W/m² | - |
| 1777809938 | 9.44° C | 94% | 1017.4 hPa | 0 mm | - | 20 W/m² | - |
| 1777809637 | 9.44° C | 93% | 1017.4 hPa | 0 mm | - | 14 W/m² | - |
| 1777809334 | 8.89° C | 93% | 1017.3 hPa | 0 mm | - | 10 W/m² | - |
| 1777809031 | 9.44° C | 93% | 1017.3 hPa | 0 mm | - | 7 W/m² | - |
| 1777808729 | 8.89° C | 93% | 1017.3 hPa | 0 mm | - | 5 W/m² | - |
| 1777808425 | 8.89° C | 93% | 1017.3 hPa | 0 mm | - | 3 W/m² | - |
| 1777808123 | 8.89° C | 93% | 1017.3 hPa | 0 mm | - | 1 W/m² | - |
| 1777807821 | 9.44° C | 92% | 1017.4 hPa | 0 mm | - | 1 W/m² | - |
| 1777807520 | 9.44° C | 92% | 1017.3 hPa | 0 mm | - | 0 W/m² | - |
| 1777807215 | 9.44° C | 92% | 1017.2 hPa | 0 mm | - | 0 W/m² | - |
| 1777806912 | 9.44° C | 92% | 1017.3 hPa | 0 mm | - | 0 W/m² | - |
| 1777806608 | 9.44° C | 92% | 1017.2 hPa | 0 mm | - | 0 W/m² | - |
| 1777806304 | 9.44° C | 91% | 1016.9 hPa | 0 mm | - | 0 W/m² | - |
| 1777806001 | 9.44° C | 91% | 1017 hPa | 0 mm | - | 0 W/m² | - |
| 1777805697 | 9.44° C | 91% | 1017 hPa | 0 mm | - | 0 W/m² | - |
| 1777805395 | 10° C | 91% | 1016.8 hPa | 0 mm | - | 0 W/m² | - |
| 1777805094 | 9.44° C | 90% | 1017.1 hPa | 0 mm | - | 0 W/m² | - |
* Rain latest hour (hover to see other rain measurements)
** Current wind speed in m/s (hover to see current wind gust speed)